sensor_id;sensor_type;location;lat;lon;timestamp;P1;durP1;ratioP1;P2;durP2;ratioP2
33760;SDS011;20084;47.912;19.044;2023-03-22T00:00:34;8.23;;;5.57;;
33760;SDS011;20084;47.912;19.044;2023-03-22T00:03:01;6.65;;;5.03;;
33760;SDS011;20084;47.912;19.044;2023-03-22T00:05:27;6.72;;;5.10;;
33760;SDS011;20084;47.912;19.044;2023-03-22T00:07:54;8.60;;;5.57;;
33760;SDS011;20084;47.912;19.044;2023-03-22T00:10:22;10.07;;;5.10;;
33760;SDS011;20084;47.912;19.044;2023-03-22T00:12:52;6.07;;;4.13;;
33760;SDS011;20084;47.912;19.044;2023-03-22T00:15:19;5.22;;;4.20;;
33760;SDS011;20084;47.912;19.044;2023-03-22T00:17:45;5.97;;;4.05;;
33760;SDS011;20084;47.912;19.044;2023-03-22T00:20:10;7.68;;;4.28;;
33760;SDS011;20084;47.912;19.044;2023-03-22T00:22:39;6.22;;;3.92;;
33760;SDS011;20084;47.912;19.044;2023-03-22T00:25:05;5.00;;;4.00;;
33760;SDS011;20084;47.912;19.044;2023-03-22T00:27:31;4.82;;;4.05;;
33760;SDS011;20084;47.912;19.044;2023-03-22T00:29:57;5.22;;;4.20;;
33760;SDS011;20084;47.912;19.044;2023-03-22T00:32:22;5.07;;;3.78;;
33760;SDS011;20084;47.912;19.044;2023-03-22T00:34:48;4.22;;;3.58;;
33760;SDS011;20084;47.912;19.044;2023-03-22T00:37:14;6.35;;;3.67;;
33760;SDS011;20084;47.912;19.044;2023-03-22T00:39:40;3.47;;;3.17;;
33760;SDS011;20084;47.912;19.044;2023-03-22T00:42:06;4.20;;;3.67;;
33760;SDS011;20084;47.912;19.044;2023-03-22T00:44:32;5.22;;;4.07;;
33760;SDS011;20084;47.912;19.044;2023-03-22T00:46:58;5.45;;;4.10;;
33760;SDS011;20084;47.912;19.044;2023-03-22T00:49:24;4.50;;;4.07;;
33760;SDS011;20084;47.912;19.044;2023-03-22T00:51:51;6.22;;;3.65;;
33760;SDS011;20084;47.912;19.044;2023-03-22T00:54:17;7.40;;;4.13;;
33760;SDS011;20084;47.912;19.044;2023-03-22T00:56:43;9.18;;;5.97;;
33760;SDS011;20084;47.912;19.044;2023-03-22T00:59:12;7.85;;;5.70;;
33760;SDS011;20084;47.912;19.044;2023-03-22T01:01:38;6.22;;;4.72;;
33760;SDS011;20084;47.912;19.044;2023-03-22T01:04:04;5.97;;;4.72;;
33760;SDS011;20084;47.912;19.044;2023-03-22T01:06:31;8.10;;;5.65;;
33760;SDS011;20084;47.912;19.044;2023-03-22T01:08:57;4.63;;;3.85;;
33760;SDS011;20084;47.912;19.044;2023-03-22T01:11:23;3.65;;;3.20;;
33760;SDS011;20084;47.912;19.044;2023-03-22T01:13:50;4.10;;;2.83;;
33760;SDS011;20084;47.912;19.044;2023-03-22T01:16:16;5.55;;;3.40;;
33760;SDS011;20084;47.912;19.044;2023-03-22T01:18:42;4.95;;;3.53;;
33760;SDS011;20084;47.912;19.044;2023-03-22T01:21:08;4.32;;;3.45;;
33760;SDS011;20084;47.912;19.044;2023-03-22T01:23:34;6.60;;;4.22;;
33760;SDS011;20084;47.912;19.044;2023-03-22T01:26:00;5.07;;;4.07;;
33760;SDS011;20084;47.912;19.044;2023-03-22T01:28:26;4.10;;;3.70;;
33760;SDS011;20084;47.912;19.044;2023-03-22T01:30:53;4.47;;;3.58;;
33760;SDS011;20084;47.912;19.044;2023-03-22T01:33:18;4.60;;;3.45;;
33760;SDS011;20084;47.912;19.044;2023-03-22T01:35:44;7.05;;;4.50;;
33760;SDS011;20084;47.912;19.044;2023-03-22T01:38:10;11.48;;;7.05;;
33760;SDS011;20084;47.912;19.044;2023-03-22T01:40:36;14.43;;;9.07;;
33760;SDS011;20084;47.912;19.044;2023-03-22T01:43:02;4.63;;;3.83;;
33760;SDS011;20084;47.912;19.044;2023-03-22T01:45:47;4.53;;;3.58;;
33760;SDS011;20084;47.912;19.044;2023-03-22T01:48:24;8.25;;;4.68;;
33760;SDS011;20084;47.912;19.044;2023-03-22T01:51:09;7.78;;;4.32;;
33760;SDS011;20084;47.912;19.044;2023-03-22T01:53:43;7.25;;;5.20;;
33760;SDS011;20084;47.912;19.044;2023-03-22T01:56:13;7.55;;;5.40;;
33760;SDS011;20084;47.912;19.044;2023-03-22T01:58:40;6.47;;;4.93;;
33760;SDS011;20084;47.912;19.044;2023-03-22T02:01:07;6.22;;;4.60;;
33760;SDS011;20084;47.912;19.044;2023-03-22T02:06:00;5.72;;;4.93;;
33760;SDS011;20084;47.912;19.044;2023-03-22T02:08:26;8.77;;;5.55;;
33760;SDS011;20084;47.912;19.044;2023-03-22T02:10:53;8.60;;;5.93;;
33760;SDS011;20084;47.912;19.044;2023-03-22T02:13:43;7.93;;;5.80;;
33760;SDS011;20084;47.912;19.044;2023-03-22T02:39:00;7.15;;;5.30;;
33760;SDS011;20084;47.912;19.044;2023-03-22T02:41:42;7.22;;;5.55;;
33760;SDS011;20084;47.912;19.044;2023-03-22T02:50:18;6.05;;;5.43;;
33760;SDS011;20084;47.912;19.044;2023-03-22T02:52:53;6.78;;;5.65;;
33760;SDS011;20084;47.912;19.044;2023-03-22T02:55:27;8.80;;;5.78;;
33760;SDS011;20084;47.912;19.044;2023-03-22T02:57:58;6.20;;;5.15;;
33760;SDS011;20084;47.912;19.044;2023-03-22T03:00:26;6.53;;;5.55;;
33760;SDS011;20084;47.912;19.044;2023-03-22T03:02:53;10.35;;;5.97;;
33760;SDS011;20084;47.912;19.044;2023-03-22T03:05:24;5.63;;;5.07;;
33760;SDS011;20084;47.912;19.044;2023-03-22T03:07:53;7.47;;;5.45;;
33760;SDS011;20084;47.912;19.044;2023-03-22T03:10:24;6.32;;;5.20;;
33760;SDS011;20084;47.912;19.044;2023-03-22T03:12:51;6.18;;;5.18;;
33760;SDS011;20084;47.912;19.044;2023-03-22T03:15:18;7.40;;;5.72;;
33760;SDS011;20084;47.912;19.044;2023-03-22T03:18:06;9.43;;;6.95;;
33760;SDS011;20084;47.912;19.044;2023-03-22T03:23:40;17.05;;;12.05;;
33760;SDS011;20084;47.912;19.044;2023-03-22T03:29:06;12.88;;;9.93;;
33760;SDS011;20084;47.912;19.044;2023-03-22T03:31:42;11.73;;;9.63;;
33760;SDS011;20084;47.912;19.044;2023-03-22T03:36:47;12.88;;;9.82;;
33760;SDS011;20084;47.912;19.044;2023-03-22T03:39:18;8.32;;;7.15;;
33760;SDS011;20084;47.912;19.044;2023-03-22T03:41:46;8.40;;;6.20;;
33760;SDS011;20084;47.912;19.044;2023-03-22T03:44:14;6.70;;;5.90;;
33760;SDS011;20084;47.912;19.044;2023-03-22T03:46:41;7.40;;;5.93;;
33760;SDS011;20084;47.912;19.044;2023-03-22T03:49:09;8.45;;;6.00;;
33760;SDS011;20084;47.912;19.044;2023-03-22T03:51:47;22.45;;;15.60;;
33760;SDS011;20084;47.912;19.044;2023-03-22T03:54:17;151.13;;;94.63;;
33760;SDS011;20084;47.912;19.044;2023-03-22T03:56:44;32.22;;;21.75;;
33760;SDS011;20084;47.912;19.044;2023-03-22T03:59:11;12.25;;;9.50;;
33760;SDS011;20084;47.912;19.044;2023-03-22T04:01:40;12.20;;;9.65;;
33760;SDS011;20084;47.912;19.044;2023-03-22T04:04:13;14.98;;;11.05;;
33760;SDS011;20084;47.912;19.044;2023-03-22T04:06:40;10.52;;;8.00;;
33760;SDS011;20084;47.912;19.044;2023-03-22T04:09:06;14.32;;;11.13;;
33760;SDS011;20084;47.912;19.044;2023-03-22T04:11:32;9.65;;;6.75;;
33760;SDS011;20084;47.912;19.044;2023-03-22T04:13:58;7.63;;;6.50;;
33760;SDS011;20084;47.912;19.044;2023-03-22T04:16:23;12.10;;;9.48;;
33760;SDS011;20084;47.912;19.044;2023-03-22T04:18:49;11.35;;;8.50;;
33760;SDS011;20084;47.912;19.044;2023-03-22T04:21:15;9.57;;;7.85;;
33760;SDS011;20084;47.912;19.044;2023-03-22T04:23:41;19.27;;;12.98;;
33760;SDS011;20084;47.912;19.044;2023-03-22T04:26:10;23.25;;;14.48;;
33760;SDS011;20084;47.912;19.044;2023-03-22T04:28:36;14.27;;;11.05;;
33760;SDS011;20084;47.912;19.044;2023-03-22T04:31:02;15.43;;;11.75;;
33760;SDS011;20084;47.912;19.044;2023-03-22T04:33:27;13.77;;;8.65;;
33760;SDS011;20084;47.912;19.044;2023-03-22T04:35:56;27.38;;;19.63;;
33760;SDS011;20084;47.912;19.044;2023-03-22T04:38:23;27.75;;;19.58;;
33760;SDS011;20084;47.912;19.044;2023-03-22T04:40:49;30.55;;;20.17;;
33760;SDS011;20084;47.912;19.044;2023-03-22T04:43:15;26.25;;;17.77;;
33760;SDS011;20084;47.912;19.044;2023-03-22T04:45:42;25.92;;;16.80;;
33760;SDS011;20084;47.912;19.044;2023-03-22T04:48:10;62.10;;;39.72;;
33760;SDS011;20084;47.912;19.044;2023-03-22T04:50:36;35.22;;;24.10;;
33760;SDS011;20084;47.912;19.044;2023-03-22T04:53:04;12.73;;;9.95;;
33760;SDS011;20084;47.912;19.044;2023-03-22T04:55:30;10.23;;;7.15;;
33760;SDS011;20084;47.912;19.044;2023-03-22T04:57:58;13.52;;;10.57;;
33760;SDS011;20084;47.912;19.044;2023-03-22T05:00:23;15.38;;;10.60;;
33760;SDS011;20084;47.912;19.044;2023-03-22T05:02:50;11.90;;;9.30;;
33760;SDS011;20084;47.912;19.044;2023-03-22T05:05:15;14.05;;;10.02;;
33760;SDS011;20084;47.912;19.044;2023-03-22T05:07:41;13.50;;;11.30;;
33760;SDS011;20084;47.912;19.044;2023-03-22T05:10:07;16.23;;;10.82;;
33760;SDS011;20084;47.912;19.044;2023-03-22T05:12:33;16.50;;;11.32;;
33760;SDS011;20084;47.912;19.044;2023-03-22T05:14:58;18.10;;;12.70;;
33760;SDS011;20084;47.912;19.044;2023-03-22T05:17:27;30.27;;;22.88;;
33760;SDS011;20084;47.912;19.044;2023-03-22T05:19:53;61.67;;;39.20;;
33760;SDS011;20084;47.912;19.044;2023-03-22T05:22:18;78.80;;;45.42;;
33760;SDS011;20084;47.912;19.044;2023-03-22T05:24:46;65.05;;;40.45;;
33760;SDS011;20084;47.912;19.044;2023-03-22T05:27:12;55.63;;;33.90;;
33760;SDS011;20084;47.912;19.044;2023-03-22T05:29:38;47.75;;;31.02;;
33760;SDS011;20084;47.912;19.044;2023-03-22T05:32:09;25.08;;;17.65;;
33760;SDS011;20084;47.912;19.044;2023-03-22T05:34:35;30.40;;;17.48;;
33760;SDS011;20084;47.912;19.044;2023-03-22T05:37:02;20.05;;;14.60;;
33760;SDS011;20084;47.912;19.044;2023-03-22T05:39:28;19.17;;;15.63;;
33760;SDS011;20084;47.912;19.044;2023-03-22T05:41:53;13.52;;;10.88;;
33760;SDS011;20084;47.912;19.044;2023-03-22T05:44:19;9.70;;;7.63;;
33760;SDS011;20084;47.912;19.044;2023-03-22T05:46:45;7.80;;;6.53;;
33760;SDS011;20084;47.912;19.044;2023-03-22T05:49:10;12.57;;;9.40;;
33760;SDS011;20084;47.912;19.044;2023-03-22T05:51:36;11.38;;;8.07;;
33760;SDS011;20084;47.912;19.044;2023-03-22T05:54:05;9.95;;;8.02;;
33760;SDS011;20084;47.912;19.044;2023-03-22T05:56:32;11.13;;;8.73;;
33760;SDS011;20084;47.912;19.044;2023-03-22T05:58:59;14.73;;;9.05;;
33760;SDS011;20084;47.912;19.044;2023-03-22T06:01:25;30.60;;;11.50;;
33760;SDS011;20084;47.912;19.044;2023-03-22T06:03:51;22.42;;;13.00;;
33760;SDS011;20084;47.912;19.044;2023-03-22T06:06:16;16.67;;;10.40;;
33760;SDS011;20084;47.912;19.044;2023-03-22T06:08:42;16.85;;;12.13;;
33760;SDS011;20084;47.912;19.044;2023-03-22T06:11:08;21.98;;;13.93;;
33760;SDS011;20084;47.912;19.044;2023-03-22T06:13:34;14.35;;;10.00;;
33760;SDS011;20084;47.912;19.044;2023-03-22T06:16:01;12.85;;;8.88;;
33760;SDS011;20084;47.912;19.044;2023-03-22T06:18:28;10.75;;;8.00;;
33760;SDS011;20084;47.912;19.044;2023-03-22T06:20:55;13.30;;;8.73;;
33760;SDS011;20084;47.912;19.044;2023-03-22T06:23:21;10.48;;;7.60;;
33760;SDS011;20084;47.912;19.044;2023-03-22T06:25:46;8.38;;;6.35;;
33760;SDS011;20084;47.912;19.044;2023-03-22T06:28:12;8.18;;;6.13;;
33760;SDS011;20084;47.912;19.044;2023-03-22T06:30:38;8.20;;;6.88;;
33760;SDS011;20084;47.912;19.044;2023-03-22T06:33:04;6.72;;;6.03;;
33760;SDS011;20084;47.912;19.044;2023-03-22T06:35:33;10.18;;;6.13;;
33760;SDS011;20084;47.912;19.044;2023-03-22T06:37:59;7.38;;;6.18;;
33760;SDS011;20084;47.912;19.044;2023-03-22T06:40:25;6.40;;;5.75;;
33760;SDS011;20084;47.912;19.044;2023-03-22T06:42:52;7.45;;;6.38;;
33760;SDS011;20084;47.912;19.044;2023-03-22T06:45:18;8.98;;;6.82;;
33760;SDS011;20084;47.912;19.044;2023-03-22T06:47:47;7.50;;;6.55;;
33760;SDS011;20084;47.912;19.044;2023-03-22T06:50:14;7.40;;;6.63;;
33760;SDS011;20084;47.912;19.044;2023-03-22T06:52:40;7.25;;;6.53;;
33760;SDS011;20084;47.912;19.044;2023-03-22T06:55:05;9.20;;;6.72;;
33760;SDS011;20084;47.912;19.044;2023-03-22T06:57:31;7.13;;;6.43;;
33760;SDS011;20084;47.912;19.044;2023-03-22T06:59:57;8.02;;;6.05;;
33760;SDS011;20084;47.912;19.044;2023-03-22T07:02:23;8.55;;;6.32;;
33760;SDS011;20084;47.912;19.044;2023-03-22T07:04:49;7.72;;;6.07;;
33760;SDS011;20084;47.912;19.044;2023-03-22T07:07:14;7.90;;;6.53;;
33760;SDS011;20084;47.912;19.044;2023-03-22T07:09:40;6.88;;;6.03;;
33760;SDS011;20084;47.912;19.044;2023-03-22T07:12:06;5.45;;;4.63;;
33760;SDS011;20084;47.912;19.044;2023-03-22T07:14:31;4.70;;;4.28;;
33760;SDS011;20084;47.912;19.044;2023-03-22T07:16:57;4.88;;;4.25;;
33760;SDS011;20084;47.912;19.044;2023-03-22T07:19:23;4.55;;;4.10;;
33760;SDS011;20084;47.912;19.044;2023-03-22T07:21:49;4.72;;;4.15;;
33760;SDS011;20084;47.912;19.044;2023-03-22T07:24:15;6.88;;;4.82;;
33760;SDS011;20084;47.912;19.044;2023-03-22T07:26:40;6.70;;;5.88;;
33760;SDS011;20084;47.912;19.044;2023-03-22T07:29:06;7.15;;;5.85;;
33760;SDS011;20084;47.912;19.044;2023-03-22T07:31:32;6.35;;;5.75;;
33760;SDS011;20084;47.912;19.044;2023-03-22T07:34:01;7.75;;;5.70;;
33760;SDS011;20084;47.912;19.044;2023-03-22T07:36:28;5.38;;;4.50;;
33760;SDS011;20084;47.912;19.044;2023-03-22T07:38:54;6.43;;;5.78;;
33760;SDS011;20084;47.912;19.044;2023-03-22T07:41:19;6.40;;;5.68;;
33760;SDS011;20084;47.912;19.044;2023-03-22T07:43:48;6.43;;;5.25;;
33760;SDS011;20084;47.912;19.044;2023-03-22T07:46:13;5.10;;;4.13;;
33760;SDS011;20084;47.912;19.044;2023-03-22T07:48:39;3.88;;;3.47;;
33760;SDS011;20084;47.912;19.044;2023-03-22T07:51:05;4.75;;;3.08;;
33760;SDS011;20084;47.912;19.044;2023-03-22T07:53:31;5.07;;;3.30;;
33760;SDS011;20084;47.912;19.044;2023-03-22T07:55:57;4.47;;;3.45;;
33760;SDS011;20084;47.912;19.044;2023-03-22T07:58:22;4.25;;;3.60;;
33760;SDS011;20084;47.912;19.044;2023-03-22T08:00:48;4.70;;;3.13;;
33760;SDS011;20084;47.912;19.044;2023-03-22T08:03:14;5.10;;;3.53;;
33760;SDS011;20084;47.912;19.044;2023-03-22T08:05:40;4.63;;;3.90;;
33760;SDS011;20084;47.912;19.044;2023-03-22T08:08:07;4.10;;;3.70;;
33760;SDS011;20084;47.912;19.044;2023-03-22T08:47:03;3.30;;;3.00;;
33760;SDS011;20084;47.912;19.044;2023-03-22T08:49:29;4.30;;;3.50;;
33760;SDS011;20084;47.912;19.044;2023-03-22T08:51:55;4.35;;;3.90;;
33760;SDS011;20084;47.912;19.044;2023-03-22T08:54:21;3.85;;;3.55;;
33760;SDS011;20084;47.912;19.044;2023-03-22T08:59:12;6.82;;;4.10;;
33760;SDS011;20084;47.912;19.044;2023-03-22T09:01:38;4.72;;;3.92;;
33760;SDS011;20084;47.912;19.044;2023-03-22T09:04:04;4.45;;;3.92;;
33760;SDS011;20084;47.912;19.044;2023-03-22T09:06:30;8.10;;;4.30;;
33760;SDS011;20084;47.912;19.044;2023-03-22T09:08:56;4.00;;;3.60;;
33760;SDS011;20084;47.912;19.044;2023-03-22T09:11:22;5.43;;;3.85;;
33760;SDS011;20084;47.912;19.044;2023-03-22T09:13:48;4.88;;;4.20;;
33760;SDS011;20084;47.912;19.044;2023-03-22T09:16:15;4.53;;;3.92;;
33760;SDS011;20084;47.912;19.044;2023-03-22T09:18:41;5.10;;;4.30;;
33760;SDS011;20084;47.912;19.044;2023-03-22T09:21:08;4.72;;;4.22;;
33760;SDS011;20084;47.912;19.044;2023-03-22T09:23:35;4.90;;;4.38;;
33760;SDS011;20084;47.912;19.044;2023-03-22T09:26:03;5.65;;;4.10;;
33760;SDS011;20084;47.912;19.044;2023-03-22T09:28:30;4.45;;;4.05;;
33760;SDS011;20084;47.912;19.044;2023-03-22T09:31:04;7.18;;;4.05;;
33760;SDS011;20084;47.912;19.044;2023-03-22T09:33:33;11.75;;;5.68;;
33760;SDS011;20084;47.912;19.044;2023-03-22T09:35:59;10.60;;;6.38;;
33760;SDS011;20084;47.912;19.044;2023-03-22T09:38:26;6.72;;;4.30;;
33760;SDS011;20084;47.912;19.044;2023-03-22T09:40:52;5.32;;;4.20;;
33760;SDS011;20084;47.912;19.044;2023-03-22T09:43:45;5.40;;;4.07;;
33760;SDS011;20084;47.912;19.044;2023-03-22T09:46:37;4.25;;;3.50;;
33760;SDS011;20084;47.912;19.044;2023-03-22T09:49:08;10.35;;;3.88;;
33760;SDS011;20084;47.912;19.044;2023-03-22T09:51:41;4.63;;;3.45;;
33760;SDS011;20084;47.912;19.044;2023-03-22T09:54:13;4.00;;;3.60;;
33760;SDS011;20084;47.912;19.044;2023-03-22T09:56:45;6.10;;;3.87;;
33760;SDS011;20084;47.912;19.044;2023-03-22T10:00:07;4.55;;;3.40;;
33760;SDS011;20084;47.912;19.044;2023-03-22T10:10:47;3.75;;;3.45;;
33760;SDS011;20084;47.912;19.044;2023-03-22T10:16:05;5.18;;;3.83;;
33760;SDS011;20084;47.912;19.044;2023-03-22T10:21:24;4.07;;;3.53;;
33760;SDS011;20084;47.912;19.044;2023-03-22T10:24:02;4.45;;;3.88;;
33760;SDS011;20084;47.912;19.044;2023-03-22T10:26:39;3.90;;;3.47;;
33760;SDS011;20084;47.912;19.044;2023-03-22T10:31:43;6.32;;;3.95;;
33760;SDS011;20084;47.912;19.044;2023-03-22T10:34:22;4.57;;;4.10;;
33760;SDS011;20084;47.912;19.044;2023-03-22T10:36:52;5.10;;;3.58;;
33760;SDS011;20084;47.912;19.044;2023-03-22T10:39:27;3.50;;;3.20;;
33760;SDS011;20084;47.912;19.044;2023-03-22T10:41:56;4.88;;;3.70;;
33760;SDS011;20084;47.912;19.044;2023-03-22T10:44:25;4.82;;;4.13;;
33760;SDS011;20084;47.912;19.044;2023-03-22T10:46:53;3.72;;;3.42;;
33760;SDS011;20084;47.912;19.044;2023-03-22T10:49:43;3.38;;;3.08;;
33760;SDS011;20084;47.912;19.044;2023-03-22T10:55:08;3.95;;;3.55;;
33760;SDS011;20084;47.912;19.044;2023-03-22T11:00:04;4.47;;;3.33;;
33760;SDS011;20084;47.912;19.044;2023-03-22T11:02:42;5.60;;;3.45;;
33760;SDS011;20084;47.912;19.044;2023-03-22T11:05:22;3.58;;;3.28;;
33760;SDS011;20084;47.912;19.044;2023-03-22T11:07:49;5.65;;;3.50;;
33760;SDS011;20084;47.912;19.044;2023-03-22T11:10:25;6.88;;;4.85;;
33760;SDS011;20084;47.912;19.044;2023-03-22T11:15:34;3.53;;;3.22;;
33760;SDS011;20084;47.912;19.044;2023-03-22T11:18:06;4.82;;;3.45;;
33760;SDS011;20084;47.912;19.044;2023-03-22T11:20:38;5.18;;;3.50;;
33760;SDS011;20084;47.912;19.044;2023-03-22T11:23:05;4.00;;;3.60;;
33760;SDS011;20084;47.912;19.044;2023-03-22T11:25:35;3.72;;;3.33;;
33760;SDS011;20084;47.912;19.044;2023-03-22T11:28:16;4.38;;;3.40;;
33760;SDS011;20084;47.912;19.044;2023-03-22T11:33:24;4.00;;;3.55;;
33760;SDS011;20084;47.912;19.044;2023-03-22T11:35:56;6.95;;;5.63;;
33760;SDS011;20084;47.912;19.044;2023-03-22T11:38:34;19.33;;;15.30;;
33760;SDS011;20084;47.912;19.044;2023-03-22T11:41:09;11.65;;;10.45;;
33760;SDS011;20084;47.912;19.044;2023-03-22T11:44:15;4.10;;;3.40;;
33760;SDS011;20084;47.912;19.044;2023-03-22T11:46:55;3.45;;;3.10;;
33760;SDS011;20084;47.912;19.044;2023-03-22T11:49:26;5.82;;;3.65;;
33760;SDS011;20084;47.912;19.044;2023-03-22T11:52:25;3.42;;;2.63;;
33760;SDS011;20084;47.912;19.044;2023-03-22T11:54:51;5.07;;;3.60;;
33760;SDS011;20084;47.912;19.044;2023-03-22T11:57:22;3.67;;;3.05;;
33760;SDS011;20084;47.912;19.044;2023-03-22T11:59:56;5.13;;;2.85;;
33760;SDS011;20084;47.912;19.044;2023-03-22T12:02:34;3.25;;;2.67;;
33760;SDS011;20084;47.912;19.044;2023-03-22T12:05:07;3.20;;;2.90;;
33760;SDS011;20084;47.912;19.044;2023-03-22T12:07:39;2.53;;;2.30;;
33760;SDS011;20084;47.912;19.044;2023-03-22T12:12:49;5.30;;;2.50;;
33760;SDS011;20084;47.912;19.044;2023-03-22T12:15:22;3.28;;;2.35;;
33760;SDS011;20084;47.912;19.044;2023-03-22T12:17:54;2.30;;;2.10;;
33760;SDS011;20084;47.912;19.044;2023-03-22T12:20:40;2.33;;;2.13;;
33760;SDS011;20084;47.912;19.044;2023-03-22T12:23:21;2.55;;;1.98;;
33760;SDS011;20084;47.912;19.044;2023-03-22T12:25:50;3.15;;;1.90;;
33760;SDS011;20084;47.912;19.044;2023-03-22T12:29:10;2.25;;;1.70;;
33760;SDS011;20084;47.912;19.044;2023-03-22T12:34:17;2.72;;;2.20;;
33760;SDS011;20084;47.912;19.044;2023-03-22T12:36:57;2.05;;;1.85;;
33760;SDS011;20084;47.912;19.044;2023-03-22T12:39:30;2.65;;;2.05;;
33760;SDS011;20084;47.912;19.044;2023-03-22T12:42:02;2.33;;;2.05;;
33760;SDS011;20084;47.912;19.044;2023-03-22T12:44:50;2.35;;;2.10;;
33760;SDS011;20084;47.912;19.044;2023-03-22T12:47:24;3.42;;;2.40;;
33760;SDS011;20084;47.912;19.044;2023-03-22T12:50:11;3.00;;;2.35;;
33760;SDS011;20084;47.912;19.044;2023-03-22T12:52:49;4.50;;;2.40;;
33760;SDS011;20084;47.912;19.044;2023-03-22T12:55:26;4.88;;;2.40;;
33760;SDS011;20084;47.912;19.044;2023-03-22T12:57:52;2.30;;;1.90;;
33760;SDS011;20084;47.912;19.044;2023-03-22T13:00:27;2.45;;;2.00;;
33760;SDS011;20084;47.912;19.044;2023-03-22T13:05:41;2.28;;;1.92;;
33760;SDS011;20084;47.912;19.044;2023-03-22T13:08:09;3.35;;;1.77;;
33760;SDS011;20084;47.912;19.044;2023-03-22T13:21:13;6.45;;;2.38;;
33760;SDS011;20084;47.912;19.044;2023-03-22T13:28:58;2.10;;;1.90;;
33760;SDS011;20084;47.912;19.044;2023-03-22T13:34:11;5.35;;;3.88;;
33760;SDS011;20084;47.912;19.044;2023-03-22T13:36:41;2.63;;;2.00;;
33760;SDS011;20084;47.912;19.044;2023-03-22T13:39:14;1.70;;;1.58;;
33760;SDS011;20084;47.912;19.044;2023-03-22T13:41:40;3.15;;;2.85;;
33760;SDS011;20084;47.912;19.044;2023-03-22T13:44:20;7.30;;;3.22;;
33760;SDS011;20084;47.912;19.044;2023-03-22T13:46:52;9.82;;;3.03;;
33760;SDS011;20084;47.912;19.044;2023-03-22T13:51:57;2.17;;;1.70;;
33760;SDS011;20084;47.912;19.044;2023-03-22T13:54:25;3.40;;;2.95;;
33760;SDS011;20084;47.912;19.044;2023-03-22T13:57:36;3.00;;;2.63;;
33760;SDS011;20084;47.912;19.044;2023-03-22T14:00:31;2.45;;;1.52;;
33760;SDS011;20084;47.912;19.044;2023-03-22T14:03:02;1.73;;;1.38;;
33760;SDS011;20084;47.912;19.044;2023-03-22T14:05:53;3.60;;;2.00;;
33760;SDS011;20084;47.912;19.044;2023-03-22T14:08:48;1.85;;;1.40;;
33760;SDS011;20084;47.912;19.044;2023-03-22T14:11:23;2.72;;;1.70;;
33760;SDS011;20084;47.912;19.044;2023-03-22T14:14:01;1.95;;;1.83;;
33760;SDS011;20084;47.912;19.044;2023-03-22T14:16:34;2.38;;;2.00;;
33760;SDS011;20084;47.912;19.044;2023-03-22T14:19:10;3.97;;;2.30;;
33760;SDS011;20084;47.912;19.044;2023-03-22T14:21:41;2.28;;;1.90;;
33760;SDS011;20084;47.912;19.044;2023-03-22T14:24:12;4.97;;;2.05;;
33760;SDS011;20084;47.912;19.044;2023-03-22T14:26:41;2.58;;;1.88;;
33760;SDS011;20084;47.912;19.044;2023-03-22T14:29:14;3.20;;;1.90;;
33760;SDS011;20084;47.912;19.044;2023-03-22T14:31:45;7.68;;;5.32;;
33760;SDS011;20084;47.912;19.044;2023-03-22T14:34:15;12.45;;;8.20;;
33760;SDS011;20084;47.912;19.044;2023-03-22T14:36:44;4.35;;;2.47;;
33760;SDS011;20084;47.912;19.044;2023-03-22T14:39:25;2.25;;;1.92;;
33760;SDS011;20084;47.912;19.044;2023-03-22T14:44:51;1.85;;;1.55;;
33760;SDS011;20084;47.912;19.044;2023-03-22T14:47:20;2.15;;;1.55;;
33760;SDS011;20084;47.912;19.044;2023-03-22T14:49:50;6.40;;;2.10;;
33760;SDS011;20084;47.912;19.044;2023-03-22T14:52:22;2.30;;;1.70;;
33760;SDS011;20084;47.912;19.044;2023-03-22T14:54:53;5.57;;;1.90;;
33760;SDS011;20084;47.912;19.044;2023-03-22T14:57:23;2.10;;;1.80;;
33760;SDS011;20084;47.912;19.044;2023-03-22T15:00:00;2.22;;;1.98;;
33760;SDS011;20084;47.912;19.044;2023-03-22T15:02:41;3.00;;;1.92;;
33760;SDS011;20084;47.912;19.044;2023-03-22T15:05:17;4.22;;;1.80;;
33760;SDS011;20084;47.912;19.044;2023-03-22T15:07:46;4.47;;;2.45;;
33760;SDS011;20084;47.912;19.044;2023-03-22T15:10:16;3.88;;;2.10;;
33760;SDS011;20084;47.912;19.044;2023-03-22T15:12:46;2.42;;;1.92;;
33760;SDS011;20084;47.912;19.044;2023-03-22T15:15:14;2.47;;;1.95;;
33760;SDS011;20084;47.912;19.044;2023-03-22T15:17:41;2.35;;;2.10;;
33760;SDS011;20084;47.912;19.044;2023-03-22T15:20:09;3.28;;;2.15;;
33760;SDS011;20084;47.912;19.044;2023-03-22T15:22:48;5.22;;;2.10;;
33760;SDS011;20084;47.912;19.044;2023-03-22T15:25:18;6.30;;;2.30;;
33760;SDS011;20084;47.912;19.044;2023-03-22T15:27:44;4.13;;;2.10;;
33760;SDS011;20084;47.912;19.044;2023-03-22T15:30:10;3.30;;;2.20;;
33760;SDS011;20084;47.912;19.044;2023-03-22T15:32:43;3.08;;;1.90;;
33760;SDS011;20084;47.912;19.044;2023-03-22T15:35:16;5.63;;;2.45;;
33760;SDS011;20084;47.912;19.044;2023-03-22T15:37:50;4.97;;;2.00;;
33760;SDS011;20084;47.912;19.044;2023-03-22T15:43:47;3.55;;;2.63;;
33760;SDS011;20084;47.912;19.044;2023-03-22T15:51:28;2.17;;;1.98;;
33760;SDS011;20084;47.912;19.044;2023-03-22T15:54:29;5.45;;;2.53;;
33760;SDS011;20084;47.912;19.044;2023-03-22T15:57:06;10.75;;;7.10;;
33760;SDS011;20084;47.912;19.044;2023-03-22T16:00:15;17.75;;;16.05;;
33760;SDS011;20084;47.912;19.044;2023-03-22T16:02:48;11.75;;;9.63;;
33760;SDS011;20084;47.912;19.044;2023-03-22T16:05:24;6.50;;;5.28;;
33760;SDS011;20084;47.912;19.044;2023-03-22T16:07:52;10.30;;;6.82;;
33760;SDS011;20084;47.912;19.044;2023-03-22T16:10:23;11.35;;;7.95;;
33760;SDS011;20084;47.912;19.044;2023-03-22T16:12:50;4.03;;;3.63;;
33760;SDS011;20084;47.912;19.044;2023-03-22T16:15:16;7.13;;;4.50;;
33760;SDS011;20084;47.912;19.044;2023-03-22T16:17:50;8.23;;;5.22;;
33760;SDS011;20084;47.912;19.044;2023-03-22T16:20:16;8.90;;;5.82;;
33760;SDS011;20084;47.912;19.044;2023-03-22T16:22:43;8.98;;;7.47;;
33760;SDS011;20084;47.912;19.044;2023-03-22T16:25:21;8.13;;;7.28;;
33760;SDS011;20084;47.912;19.044;2023-03-22T16:27:50;6.13;;;5.43;;
33760;SDS011;20084;47.912;19.044;2023-03-22T16:30:16;6.22;;;3.60;;
33760;SDS011;20084;47.912;19.044;2023-03-22T16:32:43;4.65;;;3.20;;
33760;SDS011;20084;47.912;19.044;2023-03-22T16:35:14;3.95;;;3.38;;
33760;SDS011;20084;47.912;19.044;2023-03-22T16:37:42;3.63;;;2.90;;
33760;SDS011;20084;47.912;19.044;2023-03-22T16:40:12;12.57;;;9.00;;
33760;SDS011;20084;47.912;19.044;2023-03-22T16:42:42;26.55;;;18.73;;
33760;SDS011;20084;47.912;19.044;2023-03-22T16:45:10;19.15;;;14.90;;
33760;SDS011;20084;47.912;19.044;2023-03-22T16:47:39;22.55;;;15.25;;
33760;SDS011;20084;47.912;19.044;2023-03-22T16:50:05;4.55;;;3.85;;
33760;SDS011;20084;47.912;19.044;2023-03-22T16:52:31;6.38;;;3.95;;
33760;SDS011;20084;47.912;19.044;2023-03-22T16:54:57;6.10;;;4.00;;
33760;SDS011;20084;47.912;19.044;2023-03-22T16:57:23;6.68;;;4.15;;
33760;SDS011;20084;47.912;19.044;2023-03-22T16:59:51;7.57;;;3.85;;
33760;SDS011;20084;47.912;19.044;2023-03-22T17:02:26;6.82;;;3.80;;
33760;SDS011;20084;47.912;19.044;2023-03-22T17:04:58;4.75;;;3.85;;
33760;SDS011;20084;47.912;19.044;2023-03-22T17:07:24;5.53;;;3.15;;
33760;SDS011;20084;47.912;19.044;2023-03-22T17:09:53;4.65;;;3.20;;
33760;SDS011;20084;47.912;19.044;2023-03-22T17:12:20;5.93;;;3.33;;
33760;SDS011;20084;47.912;19.044;2023-03-22T17:14:48;4.45;;;3.25;;